createdAt,value
2019-05-23T00:00:14.305Z,90.30
2019-05-23T00:01:20.091Z,90.30
2019-05-23T00:02:42.319Z,90.30
2019-05-23T00:04:02.978Z,90.30
2019-05-23T00:05:12.856Z,90.40
2019-05-23T00:06:19.431Z,90.30
2019-05-23T00:07:27.758Z,90.40
2019-05-23T00:08:32.505Z,90.40
2019-05-23T00:09:37.297Z,90.30
2019-05-23T00:10:43.445Z,90.30
2019-05-23T00:11:49.316Z,90.30
2019-05-23T00:12:55.117Z,90.30
2019-05-23T00:14:01.765Z,90.30
2019-05-23T00:15:18.670Z,90.40
2019-05-23T00:16:24.247Z,90.40
2019-05-23T00:17:29.711Z,90.40
2019-05-23T00:18:36.466Z,90.40
2019-05-23T00:19:40.686Z,90.80
2019-05-23T00:20:46.451Z,90.40
2019-05-23T00:21:51.563Z,90.50
2019-05-23T00:22:58.206Z,90.50
2019-05-23T00:24:04.171Z,90.50
2019-05-23T00:25:10.580Z,90.60
2019-05-23T00:26:16.727Z,90.70
2019-05-23T00:27:25.448Z,90.70
2019-05-23T00:28:31.355Z,90.80
2019-05-23T00:29:40.212Z,90.80
2019-05-23T00:30:44.389Z,90.80
2019-05-23T00:31:56.290Z,90.80
2019-05-23T00:33:01.173Z,90.90
2019-05-23T00:34:07.417Z,90.80
2019-05-23T00:35:14.912Z,90.90
2019-05-23T00:36:20.124Z,90.80
2019-05-23T00:37:24.850Z,90.80
2019-05-23T00:38:32.030Z,90.80
2019-05-23T00:39:37.193Z,90.80
2019-05-23T00:40:44.212Z,90.80
2019-05-23T00:41:49.289Z,90.80
2019-05-23T00:42:54.147Z,90.80
2019-05-23T00:43:58.742Z,90.80
2019-05-23T00:45:04.590Z,90.80
2019-05-23T00:46:09.761Z,90.80
2019-05-23T00:47:15.089Z,90.80
2019-05-23T00:48:20.103Z,90.80
2019-05-23T00:49:28.695Z,90.70
2019-05-23T00:50:33.418Z,90.80
2019-05-23T00:51:38.889Z,90.80
2019-05-23T00:52:42.970Z,90.70
2019-05-23T00:53:48.258Z,90.70
2019-05-23T00:54:52.867Z,90.70
2019-05-23T00:55:58.474Z,90.70
2019-05-23T00:57:03.708Z,90.70
2019-05-23T00:58:09.576Z,90.70
2019-05-23T00:59:26.609Z,90.70
2019-05-23T01:00:21.834Z,90.70
2019-05-23T01:01:27.186Z,90.70
2019-05-23T01:02:34.884Z,90.70
2019-05-23T01:03:38.917Z,90.70
2019-05-23T01:04:43.647Z,90.70
2019-05-23T01:05:48.334Z,90.70
2019-05-23T01:06:54.623Z,90.70
2019-05-23T01:07:59.870Z,90.80
2019-05-23T01:09:06.303Z,90.80
2019-05-23T01:10:12.650Z,90.80
2019-05-23T01:11:18.138Z,90.80
2019-05-23T01:12:24.409Z,90.80
2019-05-23T01:13:29.228Z,90.80
2019-05-23T01:14:34.364Z,90.80
2019-05-23T01:15:40.465Z,91.10
2019-05-23T01:16:45.070Z,90.80
2019-05-23T01:17:50.642Z,90.80
2019-05-23T01:18:54.877Z,90.80
2019-05-23T01:20:00.522Z,90.80
2019-05-23T01:21:15.440Z,90.90
2019-05-23T01:22:20.139Z,90.80
2019-05-23T01:23:25.936Z,90.80
2019-05-23T01:24:35.849Z,90.80
2019-05-23T01:25:40.690Z,90.80
2019-05-23T01:26:45.903Z,90.80
2019-05-23T01:27:51.132Z,90.80
2019-05-23T01:28:56.227Z,90.80
2019-05-23T01:30:00.456Z,90.80
2019-05-23T01:31:08.005Z,91.10
2019-05-23T01:32:32.691Z,90.80
2019-05-23T01:33:38.051Z,90.80
2019-05-23T01:34:44.148Z,90.80
2019-05-23T01:35:49.005Z,90.80
2019-05-23T01:36:54.666Z,90.70
2019-05-23T01:38:03.407Z,90.70
2019-05-23T01:39:10.797Z,90.70
2019-05-23T01:40:16.166Z,90.70
2019-05-23T01:41:23.039Z,90.80
2019-05-23T01:42:28.347Z,90.70
2019-05-23T01:43:32.812Z,90.70
2019-05-23T01:44:37.434Z,90.70
2019-05-23T01:45:42.525Z,90.70
2019-05-23T01:46:47.666Z,90.70
2019-05-23T01:47:52.693Z,90.70
2019-05-23T01:48:57.017Z,90.70
2019-05-23T01:50:01.942Z,90.70
2019-05-23T01:51:07.309Z,90.70
2019-05-23T01:52:12.731Z,90.70
2019-05-23T01:53:17.921Z,90.70
2019-05-23T01:54:22.700Z,90.70
2019-05-23T01:55:29.031Z,90.70
2019-05-23T01:56:34.723Z,90.70
2019-05-23T01:57:40.004Z,90.70
2019-05-23T01:58:44.897Z,90.70
2019-05-23T02:00:07.810Z,90.70
2019-05-23T02:00:57.181Z,90.70
2019-05-23T02:02:01.305Z,90.70
2019-05-23T02:03:06.429Z,90.70
2019-05-23T02:04:10.633Z,90.70
2019-05-23T02:05:15.911Z,90.70
2019-05-23T02:06:19.977Z,90.70
2019-05-23T02:07:24.701Z,90.70
2019-05-23T02:08:28.990Z,90.70
2019-05-23T02:09:33.661Z,90.70
2019-05-23T02:10:38.271Z,90.70
2019-05-23T02:11:43.458Z,90.70
2019-05-23T02:12:47.789Z,90.70
2019-05-23T02:13:52.622Z,90.70
2019-05-23T02:14:57.253Z,90.80
2019-05-23T02:16:02.691Z,90.70
2019-05-23T02:17:09.078Z,90.70
2019-05-23T02:18:14.647Z,90.70
2019-05-23T02:19:20.643Z,90.70
2019-05-23T02:20:26.162Z,91.10
2019-05-23T02:21:30.621Z,90.80
2019-05-23T02:22:35.796Z,90.80
2019-05-23T02:23:40.014Z,90.80
2019-05-23T02:24:44.796Z,90.80
2019-05-23T02:25:48.918Z,90.80
2019-05-23T02:26:53.643Z,90.80
2019-05-23T02:27:58.565Z,90.80
2019-05-23T02:29:04.057Z,90.80
2019-05-23T02:30:30.181Z,90.80
2019-05-23T02:31:17.378Z,90.80
2019-05-23T02:32:23.099Z,90.80
2019-05-23T02:33:30.931Z,90.80
2019-05-23T02:34:35.138Z,90.80
2019-05-23T02:35:41.006Z,90.80
2019-05-23T02:36:46.800Z,90.90
2019-05-23T02:38:08.805Z,90.80
2019-05-23T02:39:23.483Z,90.80
2019-05-23T02:40:45.652Z,90.80
2019-05-23T02:42:00.942Z,90.80
2019-05-23T02:43:09.598Z,90.80
2019-05-23T02:44:23.998Z,90.80
2019-05-23T02:45:37.144Z,90.80
2019-05-23T02:46:59.580Z,90.80
2019-05-23T02:48:06.242Z,90.80
2019-05-23T02:49:12.167Z,90.80
2019-05-23T02:50:22.367Z,90.80
2019-05-23T02:51:33.114Z,90.80
2019-05-23T02:52:40.418Z,90.80
2019-05-23T02:53:47.309Z,90.80
2019-05-23T02:54:54.296Z,90.80
2019-05-23T02:56:03.100Z,90.80
2019-05-23T02:57:10.864Z,90.80
2019-05-23T02:58:24.847Z,90.90
2019-05-23T02:59:48.528Z,90.90
2019-05-23T03:00:59.676Z,90.90
2019-05-23T03:02:35.902Z,90.90
2019-05-23T03:03:41.558Z,90.80
2019-05-23T03:04:47.738Z,90.80
2019-05-23T03:05:52.613Z,90.70
2019-05-23T03:06:59.250Z,90.70
2019-05-23T03:08:06.309Z,90.70
2019-05-23T03:09:12.366Z,90.70
2019-05-23T03:10:21.313Z,90.70
2019-05-23T03:11:28.954Z,90.70
2019-05-23T03:12:34.889Z,90.60
2019-05-23T03:13:41.445Z,91.00
2019-05-23T03:14:47.413Z,90.60
2019-05-23T03:15:52.008Z,90.60
2019-05-23T03:17:00.431Z,90.60
2019-05-23T03:18:07.246Z,90.50
2019-05-23T03:19:27.898Z,90.60
2019-05-23T03:20:34.468Z,90.50
2019-05-23T03:21:39.625Z,90.50
2019-05-23T03:23:00.293Z,90.40
2019-05-23T03:24:05.705Z,90.40
2019-05-23T03:25:21.843Z,90.40
2019-05-23T03:26:41.372Z,90.50
2019-05-23T03:27:46.721Z,90.40
2019-05-23T03:28:51.817Z,90.40
2019-05-23T03:29:56.589Z,90.40
2019-05-23T03:31:29.726Z,90.40
2019-05-23T03:32:39.440Z,90.40
2019-05-23T03:33:45.042Z,90.40
2019-05-23T03:34:50.839Z,90.30
2019-05-23T03:35:56.708Z,90.30
2019-05-23T03:37:01.984Z,90.30
2019-05-23T03:38:07.356Z,90.30
2019-05-23T03:39:11.832Z,90.30
2019-05-23T03:40:17.513Z,90.30
2019-05-23T03:41:22.310Z,90.30
2019-05-23T03:42:28.146Z,90.30
2019-05-23T03:43:33.203Z,90.30
2019-05-23T03:44:39.719Z,90.60
2019-05-23T03:45:45.602Z,90.30
2019-05-23T03:46:51.400Z,90.20
2019-05-23T03:47:55.829Z,90.30
2019-05-23T03:49:01.288Z,90.20
2019-05-23T03:50:08.146Z,90.20
2019-05-23T03:51:12.940Z,90.20
2019-05-23T03:52:19.195Z,90.20
2019-05-23T03:53:26.040Z,90.10
2019-05-23T03:54:30.114Z,90.10
2019-05-23T03:55:36.959Z,90.10
2019-05-23T03:56:43.228Z,90.10
2019-05-23T03:57:50.427Z,90.10
2019-05-23T03:58:56.813Z,90.00
2019-05-23T04:00:02.562Z,90.00
2019-05-23T04:01:07.888Z,90.00
2019-05-23T04:02:14.076Z,89.80
2019-05-23T04:03:19.143Z,89.80
2019-05-23T04:04:26.762Z,89.80
2019-05-23T04:05:31.380Z,89.70
2019-05-23T04:06:36.577Z,89.70
2019-05-23T04:07:41.215Z,89.50
2019-05-23T04:08:46.299Z,89.50
2019-05-23T04:09:50.465Z,89.50
2019-05-23T04:10:56.877Z,89.40
2019-05-23T04:12:01.146Z,90.10
2019-05-23T04:13:06.877Z,89.40
2019-05-23T04:14:11.114Z,89.30
2019-05-23T04:15:15.860Z,89.30
2019-05-23T04:16:20.128Z,89.30
2019-05-23T04:17:25.336Z,89.30
2019-05-23T04:18:29.982Z,89.30
2019-05-23T04:19:34.632Z,89.30
2019-05-23T04:20:38.861Z,89.30
2019-05-23T04:21:43.617Z,89.30
2019-05-23T04:22:50.723Z,89.30
2019-05-23T04:23:56.625Z,89.20
2019-05-23T04:25:02.220Z,89.30
2019-05-23T04:26:07.650Z,89.30
2019-05-23T04:27:12.252Z,89.10
2019-05-23T04:28:17.154Z,89.10
2019-05-23T04:29:21.353Z,89.10
2019-05-23T04:30:26.192Z,89.00
2019-05-23T04:31:30.310Z,89.00
2019-05-23T04:32:35.463Z,89.00
2019-05-23T04:33:39.666Z,89.00
2019-05-23T04:34:44.789Z,88.90
2019-05-23T04:35:48.868Z,88.90
2019-05-23T04:36:55.419Z,88.80
2019-05-23T04:37:59.578Z,88.80
2019-05-23T04:39:06.194Z,88.70
2019-05-23T04:40:12.085Z,88.70
2019-05-23T04:41:16.869Z,88.60
2019-05-23T04:42:21.043Z,88.60
2019-05-23T04:43:25.834Z,88.50
2019-05-23T04:44:30.124Z,88.60
2019-05-23T04:45:35.115Z,88.40
2019-05-23T04:46:40.733Z,88.30
2019-05-23T04:47:45.444Z,88.30
2019-05-23T04:48:50.656Z,88.10
2019-05-23T04:49:55.463Z,88.00
2019-05-23T04:51:00.892Z,87.80
2019-05-23T04:52:07.377Z,87.50
2019-05-23T04:53:12.283Z,87.50
2019-05-23T04:54:17.336Z,87.40
2019-05-23T04:55:22.538Z,87.20
2019-05-23T04:56:27.457Z,87.10
2019-05-23T04:57:32.567Z,87.10
2019-05-23T04:58:38.535Z,86.90
2019-05-23T04:59:42.841Z,86.60
2019-05-23T05:00:47.999Z,86.60
2019-05-23T05:01:53.192Z,86.50
2019-05-23T05:02:58.142Z,86.30
2019-05-23T05:04:03.605Z,86.30
2019-05-23T05:05:08.507Z,86.00
2019-05-23T05:06:12.942Z,85.80
2019-05-23T05:07:17.732Z,85.60
2019-05-23T05:08:22.144Z,85.30
2019-05-23T05:09:27.961Z,85.10
2019-05-23T05:10:35.085Z,84.90
2019-05-23T05:11:40.056Z,84.70
2019-05-23T05:12:44.313Z,84.70
2019-05-23T05:13:49.901Z,84.70
2019-05-23T05:14:54.302Z,84.60
2019-05-23T05:15:59.042Z,85.40
2019-05-23T05:17:04.923Z,84.50
2019-05-23T05:18:09.661Z,84.40
2019-05-23T05:19:14.755Z,84.30
2019-05-23T05:20:19.745Z,84.20
2019-05-23T05:21:24.154Z,84.10
2019-05-23T05:22:28.798Z,84.10
2019-05-23T05:23:33.089Z,84.10
2019-05-23T05:24:40.303Z,83.90
2019-05-23T05:25:43.546Z,83.20
2019-05-23T05:26:48.436Z,83.70
2019-05-23T05:27:52.621Z,84.50
2019-05-23T05:28:57.437Z,83.50
2019-05-23T05:30:03.118Z,83.50
2019-05-23T05:31:08.271Z,83.40
2019-05-23T05:32:15.656Z,83.30
2019-05-23T05:33:20.351Z,83.20
2019-05-23T05:34:24.608Z,83.20
2019-05-23T05:35:32.146Z,83.30
2019-05-23T05:36:36.363Z,83.20
2019-05-23T05:37:41.000Z,83.30
2019-05-23T05:38:45.081Z,83.20
2019-05-23T05:39:50.859Z,83.20
2019-05-23T05:41:00.804Z,83.30
2019-05-23T05:42:06.355Z,83.40
2019-05-23T05:43:10.815Z,83.50
2019-05-23T05:44:15.453Z,83.50
2019-05-23T05:45:20.171Z,83.80
2019-05-23T05:46:25.001Z,83.60
2019-05-23T05:47:29.957Z,83.80
2019-05-23T05:48:35.279Z,83.90
2019-05-23T05:49:42.318Z,83.90
2019-05-23T05:50:46.607Z,84.00
2019-05-23T05:51:52.194Z,84.00
2019-05-23T05:52:58.308Z,84.00
2019-05-23T05:54:04.431Z,84.00
2019-05-23T05:55:11.140Z,83.90
2019-05-23T05:56:16.745Z,83.90
2019-05-23T05:57:21.528Z,83.80
2019-05-23T05:58:25.696Z,83.50
2019-05-23T05:59:30.740Z,83.20
2019-05-23T06:00:39.580Z,83.10
2019-05-23T06:01:47.188Z,82.90
2019-05-23T06:03:03.498Z,82.50
2019-05-23T06:03:57.261Z,81.90
2019-05-23T06:05:06.687Z,81.50
2019-05-23T06:06:12.220Z,81.20
2019-05-23T06:07:32.957Z,80.90
2019-05-23T06:08:40.052Z,80.70
2019-05-23T06:09:46.180Z,80.20
2019-05-23T06:10:50.385Z,80.00
2019-05-23T06:11:58.477Z,79.80
2019-05-23T06:13:04.278Z,79.60
2019-05-23T06:14:09.081Z,79.00
2019-05-23T06:15:13.458Z,78.50
2019-05-23T06:16:18.267Z,78.40
2019-05-23T06:17:26.556Z,77.90
2019-05-23T06:18:31.302Z,77.60
2019-05-23T06:19:35.437Z,77.10
2019-05-23T06:20:43.640Z,76.40
2019-05-23T06:21:48.868Z,76.30
2019-05-23T06:22:53.807Z,76.10
2019-05-23T06:23:58.060Z,76.00
2019-05-23T06:25:04.382Z,75.60
2019-05-23T06:26:10.256Z,75.10
2019-05-23T06:27:18.847Z,74.70
2019-05-23T06:28:23.566Z,74.30
2019-05-23T06:29:31.190Z,74.10
2019-05-23T06:30:37.071Z,73.70
2019-05-23T06:31:42.096Z,73.10
2019-05-23T06:32:46.362Z,72.90
2019-05-23T06:33:51.702Z,72.60
2019-05-23T06:34:57.426Z,72.60
2019-05-23T06:36:02.363Z,72.50
2019-05-23T06:37:08.650Z,72.20
2019-05-23T06:38:13.478Z,71.50
2019-05-23T06:39:18.101Z,71.30
2019-05-23T06:40:24.675Z,71.30
2019-05-23T06:41:28.923Z,70.60
2019-05-23T06:42:33.747Z,70.20
2019-05-23T06:43:38.389Z,69.90
2019-05-23T06:44:43.066Z,69.80
2019-05-23T06:45:47.977Z,69.50
2019-05-23T06:46:55.719Z,69.30
2019-05-23T06:48:01.319Z,68.90
2019-05-23T06:49:06.004Z,68.40
2019-05-23T06:50:14.405Z,68.20
2019-05-23T06:51:20.545Z,68.20
2019-05-23T06:52:24.562Z,68.00
2019-05-23T06:53:29.332Z,67.90
2019-05-23T06:54:33.439Z,67.90
2019-05-23T06:55:38.219Z,67.90
2019-05-23T06:56:42.340Z,68.20
2019-05-23T06:57:47.119Z,68.10
2019-05-23T06:58:51.249Z,68.40
2019-05-23T06:59:56.108Z,68.60
2019-05-23T07:01:00.309Z,68.90
2019-05-23T07:02:05.097Z,69.00
2019-05-23T07:03:09.396Z,69.00
2019-05-23T07:04:14.677Z,69.10
2019-05-23T07:05:22.436Z,69.00
2019-05-23T07:06:27.143Z,68.90
2019-05-23T07:07:32.994Z,68.80
2019-05-23T07:08:37.764Z,68.90
2019-05-23T07:09:41.838Z,69.00
2019-05-23T07:10:46.967Z,69.10
2019-05-23T07:11:54.119Z,69.30
2019-05-23T07:13:00.369Z,69.90
2019-05-23T07:14:08.153Z,69.40
2019-05-23T07:15:13.583Z,69.40
2019-05-23T07:16:17.824Z,69.30
2019-05-23T07:17:24.062Z,69.40
2019-05-23T07:18:28.182Z,69.50
2019-05-23T07:19:32.892Z,69.60
2019-05-23T07:20:40.943Z,69.70
2019-05-23T07:21:45.884Z,69.70
2019-05-23T07:22:49.924Z,69.70
2019-05-23T07:23:56.125Z,69.80
2019-05-23T07:25:00.340Z,69.90
2019-05-23T07:26:05.223Z,69.90
2019-05-23T07:27:09.301Z,70.10
2019-05-23T07:28:16.517Z,69.90
2019-05-23T07:29:22.671Z,69.90
2019-05-23T07:30:27.873Z,69.80
2019-05-23T07:31:35.447Z,69.70
2019-05-23T07:32:39.000Z,69.60
2019-05-23T07:34:00.484Z,69.50
2019-05-23T07:34:49.467Z,69.20
2019-05-23T07:35:53.956Z,69.20
2019-05-23T07:36:58.629Z,69.30
2019-05-23T07:38:02.863Z,69.30
2019-05-23T07:39:11.685Z,69.40
2019-05-23T07:40:16.187Z,69.50
2019-05-23T07:41:21.345Z,69.60
2019-05-23T07:42:27.221Z,69.70
2019-05-23T07:43:35.168Z,69.70
2019-05-23T07:44:48.337Z,69.60
2019-05-23T07:46:00.318Z,69.50
2019-05-23T07:47:06.093Z,69.50
2019-05-23T07:48:10.947Z,69.20
2019-05-23T07:49:15.851Z,69.20
2019-05-23T07:50:20.603Z,69.50
2019-05-23T07:51:24.706Z,69.60
2019-05-23T07:52:29.523Z,69.40
2019-05-23T07:53:51.439Z,69.50
2019-05-23T07:54:57.209Z,69.50
2019-05-23T07:56:02.737Z,69.70
2019-05-23T07:57:08.523Z,70.00
2019-05-23T07:58:14.234Z,69.90
2019-05-23T07:59:18.535Z,70.10
2019-05-23T08:00:28.388Z,70.20
2019-05-23T08:01:35.825Z,70.40
2019-05-23T08:02:41.854Z,70.50
2019-05-23T08:03:49.438Z,70.60
2019-05-23T08:04:54.515Z,70.80
2019-05-23T08:05:58.572Z,70.90
2019-05-23T08:07:04.354Z,71.10
2019-05-23T08:08:09.388Z,71.20
2019-05-23T08:09:15.674Z,71.30
2019-05-23T08:10:33.306Z,71.20
2019-05-23T08:11:26.528Z,71.30
2019-05-23T08:12:31.408Z,71.20
2019-05-23T08:13:37.229Z,71.10
2019-05-23T08:14:41.366Z,70.90
2019-05-23T08:15:46.496Z,70.90
2019-05-23T08:16:51.296Z,70.90
2019-05-23T08:17:56.099Z,70.90
2019-05-23T08:19:00.355Z,70.60
2019-05-23T08:20:06.030Z,70.30
2019-05-23T08:21:10.365Z,70.20
2019-05-23T08:22:15.387Z,70.10
2019-05-23T08:23:19.748Z,69.90
2019-05-23T08:24:24.782Z,69.90
2019-05-23T08:25:29.072Z,69.90
2019-05-23T08:26:34.457Z,70.00
2019-05-23T08:27:38.764Z,70.20
2019-05-23T08:29:00.871Z,70.30
2019-05-23T08:29:49.318Z,70.40
2019-05-23T08:30:53.954Z,70.40
2019-05-23T08:31:58.593Z,70.40
2019-05-23T08:33:03.892Z,70.40
2019-05-23T08:34:08.985Z,70.30
2019-05-23T08:35:17.736Z,70.10
2019-05-23T08:36:20.697Z,69.70
2019-05-23T08:37:25.687Z,69.70
2019-05-23T08:38:30.392Z,69.30
2019-05-23T08:39:36.751Z,69.10
2019-05-23T08:40:41.628Z,69.10
2019-05-23T08:41:46.343Z,69.00
2019-05-23T08:42:51.724Z,68.90
2019-05-23T08:43:56.407Z,68.40
2019-05-23T08:45:00.737Z,66.50
2019-05-23T08:46:05.453Z,66.20
2019-05-23T08:47:10.949Z,66.20
2019-05-23T08:48:15.620Z,66.10
2019-05-23T08:49:20.901Z,65.90
2019-05-23T08:50:25.857Z,65.30
2019-05-23T08:51:30.044Z,64.90
2019-05-23T08:52:34.692Z,65.10
2019-05-23T08:53:38.856Z,65.20
2019-05-23T08:54:44.942Z,65.20
2019-05-23T08:55:50.036Z,65.10
2019-05-23T08:56:54.713Z,65.00
2019-05-23T08:57:58.947Z,65.10
2019-05-23T08:59:05.194Z,64.80
2019-05-23T09:00:10.990Z,64.70
2019-05-23T09:01:16.104Z,64.70
2019-05-23T09:02:20.309Z,64.80
2019-05-23T09:03:25.723Z,64.70
2019-05-23T09:04:30.292Z,64.80
2019-05-23T09:05:36.225Z,64.60
2019-05-23T09:06:40.378Z,64.70
2019-05-23T09:07:46.223Z,64.60
2019-05-23T09:08:51.826Z,64.50
2019-05-23T09:09:56.729Z,64.40
2019-05-23T09:11:01.773Z,64.40
2019-05-23T09:12:07.234Z,64.20
2019-05-23T09:13:11.461Z,63.80
2019-05-23T09:14:16.281Z,63.70
2019-05-23T09:15:20.486Z,63.80
2019-05-23T09:16:25.941Z,63.80
2019-05-23T09:17:30.372Z,63.90
2019-05-23T09:18:35.504Z,63.80
2019-05-23T09:19:39.708Z,63.70
2019-05-23T09:20:44.375Z,64.00
2019-05-23T09:21:48.608Z,64.30
2019-05-23T09:22:53.326Z,64.40
2019-05-23T09:23:57.388Z,64.30
2019-05-23T09:25:02.098Z,64.30
2019-05-23T09:26:06.158Z,64.10
2019-05-23T09:27:10.998Z,64.30
2019-05-23T09:28:16.885Z,64.30
2019-05-23T09:29:21.798Z,64.40
2019-05-23T09:30:26.845Z,64.40
2019-05-23T09:31:32.413Z,64.60
2019-05-23T09:32:36.520Z,64.50
2019-05-23T09:33:41.621Z,64.50
2019-05-23T09:34:45.829Z,65.10
2019-05-23T09:35:50.493Z,64.10
2019-05-23T09:36:54.694Z,64.00
2019-05-23T09:37:59.493Z,64.00
2019-05-23T09:39:06.481Z,64.10
2019-05-23T09:40:12.005Z,64.30
2019-05-23T09:41:16.217Z,63.90
2019-05-23T09:42:21.029Z,63.60
2019-05-23T09:43:25.279Z,63.40
2019-05-23T09:44:31.817Z,63.40
2019-05-23T09:45:35.998Z,63.30
2019-05-23T09:46:40.659Z,62.90
2019-05-23T09:47:45.163Z,62.80
2019-05-23T09:48:51.586Z,62.60
2019-05-23T09:49:55.720Z,62.90
2019-05-23T09:51:00.398Z,62.90
2019-05-23T09:52:07.189Z,62.80
2019-05-23T09:53:15.753Z,62.70
2019-05-23T09:54:21.443Z,62.50
2019-05-23T09:55:26.147Z,62.30
2019-05-23T09:56:31.458Z,62.10
2019-05-23T09:57:37.711Z,62.70
2019-05-23T09:58:41.835Z,61.70
2019-05-23T09:59:46.670Z,61.60
2019-05-23T10:00:50.721Z,61.80
2019-05-23T10:01:56.036Z,61.70
2019-05-23T10:03:01.341Z,61.80
2019-05-23T10:04:06.438Z,61.50
2019-05-23T10:05:12.737Z,61.40
2019-05-23T10:06:17.776Z,61.70
2019-05-23T10:07:21.867Z,60.30
2019-05-23T10:08:26.663Z,59.90
2019-05-23T10:09:30.788Z,59.30
2019-05-23T10:10:37.747Z,56.70
2019-05-23T10:11:44.109Z,56.90
2019-05-23T10:12:48.862Z,57.00
2019-05-23T10:13:52.994Z,56.90
2019-05-23T10:14:57.652Z,56.50
2019-05-23T10:16:03.681Z,55.20
2019-05-23T10:17:08.555Z,54.40
2019-05-23T10:18:18.614Z,54.30
2019-05-23T10:19:23.254Z,54.20
2019-05-23T10:20:29.921Z,54.10
2019-05-23T10:21:34.584Z,53.80
2019-05-23T10:22:38.755Z,53.80
2019-05-23T10:23:43.423Z,53.50
2019-05-23T10:24:48.405Z,53.80
2019-05-23T10:25:53.082Z,54.20
2019-05-23T10:26:57.277Z,54.40
2019-05-23T10:28:02.006Z,54.80
2019-05-23T10:29:06.169Z,55.40
2019-05-23T10:30:12.532Z,56.10
2019-05-23T10:31:17.008Z,56.00
2019-05-23T10:32:21.819Z,56.00
2019-05-23T10:33:25.857Z,56.20
2019-05-23T10:34:30.680Z,56.50
2019-05-23T10:35:34.869Z,56.90
2019-05-23T10:36:39.591Z,57.30
2019-05-23T10:37:43.803Z,57.70
2019-05-23T10:38:48.595Z,58.20
2019-05-23T10:39:54.862Z,58.40
2019-05-23T10:40:59.729Z,58.50
2019-05-23T10:42:03.771Z,57.80
2019-05-23T10:43:09.429Z,57.70
2019-05-23T10:44:13.685Z,57.80
2019-05-23T10:45:18.653Z,57.30
2019-05-23T10:46:23.007Z,57.60
2019-05-23T10:47:28.023Z,57.80
2019-05-23T10:48:32.613Z,58.80
2019-05-23T10:49:37.302Z,58.40
2019-05-23T10:50:44.890Z,58.80
2019-05-23T10:51:47.683Z,59.10
2019-05-23T10:52:51.816Z,59.50
2019-05-23T10:53:56.595Z,59.80
2019-05-23T10:55:00.932Z,60.00
2019-05-23T10:56:05.761Z,60.40
2019-05-23T10:57:09.917Z,60.70
2019-05-23T10:58:16.174Z,61.00
2019-05-23T10:59:20.323Z,61.30
2019-05-23T11:00:26.838Z,61.40
2019-05-23T11:01:32.157Z,61.50
2019-05-23T11:02:37.449Z,61.70
2019-05-23T11:03:41.681Z,62.00
2019-05-23T11:04:46.429Z,62.20
2019-05-23T11:05:50.773Z,62.40
2019-05-23T11:06:55.953Z,62.60
2019-05-23T11:08:01.756Z,62.90
2019-05-23T11:09:09.866Z,63.10
2019-05-23T11:10:15.466Z,63.30
2019-05-23T11:11:20.229Z,63.60
2019-05-23T11:12:27.437Z,64.10
2019-05-23T11:13:33.301Z,65.00
2019-05-23T11:14:37.490Z,65.40
2019-05-23T11:15:42.396Z,65.90
2019-05-23T11:16:46.457Z,66.60
2019-05-23T11:17:53.651Z,66.90
2019-05-23T11:18:57.035Z,67.30
2019-05-23T11:20:02.071Z,67.60
2019-05-23T11:21:06.555Z,67.50
2019-05-23T11:22:11.876Z,67.50
2019-05-23T11:23:17.673Z,67.40
2019-05-23T11:24:22.123Z,67.30
2019-05-23T11:25:26.260Z,67.10
2019-05-23T11:26:30.909Z,67.10
2019-05-23T11:27:35.042Z,66.80
2019-05-23T11:28:40.417Z,66.70
2019-05-23T11:29:44.545Z,66.70
2019-05-23T11:30:56.175Z,66.40
2019-05-23T11:32:00.677Z,66.30
2019-05-23T11:33:05.561Z,66.00
2019-05-23T11:34:10.210Z,65.90
2019-05-23T11:35:14.853Z,65.40
2019-05-23T11:36:33.660Z,65.20
2019-05-23T11:37:25.349Z,65.20
2019-05-23T11:38:30.241Z,64.90
2019-05-23T11:39:42.355Z,65.20
2019-05-23T11:40:42.817Z,64.10
2019-05-23T11:41:50.274Z,64.00
2019-05-23T11:42:54.547Z,64.30
2019-05-23T11:43:59.528Z,64.40
2019-05-23T11:45:05.143Z,64.60
2019-05-23T11:46:20.334Z,64.60
2019-05-23T11:47:24.876Z,64.30
2019-05-23T11:48:30.827Z,63.70
2019-05-23T11:49:35.030Z,62.70
2019-05-23T11:50:39.807Z,62.40
2019-05-23T11:51:43.874Z,62.00
2019-05-23T11:52:49.107Z,62.00
2019-05-23T11:54:07.013Z,63.30
2019-05-23T11:55:00.407Z,62.90
2019-05-23T11:56:04.639Z,63.30
2019-05-23T11:57:09.896Z,63.70
2019-05-23T11:58:14.272Z,64.20
2019-05-23T11:59:18.990Z,64.50
2019-05-23T12:00:54.661Z,64.80
2019-05-23T12:02:04.189Z,65.10
2019-05-23T12:03:08.704Z,65.40
2019-05-23T12:04:14.581Z,65.70
2019-05-23T12:05:21.465Z,66.20
2019-05-23T12:06:27.203Z,66.90
2019-05-23T12:07:31.309Z,68.10
2019-05-23T12:08:35.951Z,68.90
2019-05-23T12:09:40.196Z,69.90
2019-05-23T12:10:44.975Z,70.90
2019-05-23T12:11:49.185Z,71.00
2019-05-23T12:12:53.920Z,71.00
2019-05-23T12:13:58.237Z,72.00
2019-05-23T12:15:05.257Z,71.60
2019-05-23T12:16:10.842Z,72.10
2019-05-23T12:17:16.697Z,72.30
2019-05-23T12:18:20.947Z,72.60
2019-05-23T12:19:25.897Z,73.20
2019-05-23T12:20:30.543Z,73.50
2019-05-23T12:21:38.676Z,73.40
2019-05-23T12:22:43.093Z,73.70
2019-05-23T12:23:47.800Z,73.80
2019-05-23T12:24:52.005Z,74.00
2019-05-23T12:25:56.732Z,74.00
2019-05-23T12:27:01.966Z,74.10
2019-05-23T12:28:08.040Z,74.50
2019-05-23T12:29:12.320Z,74.80
2019-05-23T12:30:18.770Z,75.00
2019-05-23T12:31:23.620Z,75.10
2019-05-23T12:32:28.308Z,75.80
2019-05-23T12:33:32.731Z,75.10
2019-05-23T12:34:37.471Z,74.60
2019-05-23T12:35:41.572Z,74.50
2019-05-23T12:36:46.390Z,74.50
2019-05-23T12:37:50.520Z,74.60
2019-05-23T12:38:55.574Z,74.90
2019-05-23T12:40:00.304Z,75.10
2019-05-23T12:41:08.400Z,75.30
2019-05-23T12:42:12.609Z,75.50
2019-05-23T12:43:17.401Z,75.50
2019-05-23T12:44:21.618Z,76.00
2019-05-23T12:45:26.253Z,76.20
2019-05-23T12:46:30.451Z,76.20
2019-05-23T12:47:36.473Z,77.20
2019-05-23T12:48:51.343Z,77.40
2019-05-23T12:49:57.151Z,78.40
2019-05-23T12:51:06.220Z,78.00
2019-05-23T12:52:11.584Z,78.30
2019-05-23T12:53:16.152Z,78.60
2019-05-23T12:54:21.062Z,79.10
2019-05-23T12:55:25.206Z,79.10
2019-05-23T12:56:33.035Z,79.40
2019-05-23T12:57:37.366Z,79.70
2019-05-23T12:58:42.035Z,81.00
2019-05-23T12:59:47.823Z,80.40
2019-05-23T13:00:54.293Z,80.50
2019-05-23T13:02:01.920Z,80.50
2019-05-23T13:03:06.658Z,80.40
2019-05-23T13:04:11.069Z,80.50
2019-05-23T13:05:15.860Z,80.60
2019-05-23T13:06:20.155Z,80.60
2019-05-23T13:07:35.835Z,80.80
2019-05-23T13:08:31.419Z,80.70
2019-05-23T13:09:36.554Z,80.70
2019-05-23T13:10:40.860Z,80.50
2019-05-23T13:11:45.699Z,80.60
2019-05-23T13:12:49.896Z,80.60
2019-05-23T13:13:54.550Z,80.50
2019-05-23T13:14:59.184Z,80.40
2019-05-23T13:16:03.981Z,80.40
2019-05-23T13:17:08.134Z,80.50
2019-05-23T13:18:12.988Z,80.50
2019-05-23T13:19:17.656Z,80.30
2019-05-23T13:20:22.809Z,80.00
2019-05-23T13:21:26.903Z,79.90
2019-05-23T13:22:31.569Z,79.80
2019-05-23T13:23:36.086Z,79.30
2019-05-23T13:24:52.045Z,79.20
2019-05-23T13:25:46.848Z,79.30
2019-05-23T13:26:51.564Z,79.50
2019-05-23T13:27:58.808Z,79.00
2019-05-23T13:29:02.924Z,78.40
2019-05-23T13:30:08.503Z,77.50
2019-05-23T13:31:13.191Z,77.50
2019-05-23T13:32:17.284Z,77.70
2019-05-23T13:33:22.312Z,77.60
2019-05-23T13:34:26.519Z,77.70
2019-05-23T13:35:32.455Z,77.80
2019-05-23T13:36:36.619Z,77.70
2019-05-23T13:37:52.875Z,77.80
2019-05-23T13:38:47.728Z,77.70
2019-05-23T13:39:52.587Z,77.90
2019-05-23T13:40:56.807Z,77.90
2019-05-23T13:42:02.711Z,77.80
2019-05-23T13:43:08.839Z,77.90
2019-05-23T13:44:31.790Z,78.10
2019-05-23T13:45:19.760Z,78.50
2019-05-23T13:46:24.884Z,78.90
2019-05-23T13:47:29.186Z,78.90
2019-05-23T13:48:35.522Z,79.30
2019-05-23T13:49:39.792Z,79.30
2019-05-23T13:50:44.647Z,79.50
2019-05-23T13:51:49.046Z,79.80
2019-05-23T13:52:53.766Z,80.00
2019-05-23T13:53:57.862Z,80.30
2019-05-23T13:55:04.127Z,80.40
2019-05-23T13:56:08.349Z,80.80
2019-05-23T13:57:13.690Z,81.00
2019-05-23T13:58:17.954Z,81.10
2019-05-23T13:59:22.910Z,81.30
2019-05-23T14:00:28.828Z,81.70
2019-05-23T14:01:37.586Z,81.80
2019-05-23T14:02:42.063Z,82.10
2019-05-23T14:03:47.004Z,82.20
2019-05-23T14:04:51.437Z,82.50
2019-05-23T14:05:56.304Z,82.80
2019-05-23T14:07:01.732Z,82.90
2019-05-23T14:08:13.093Z,83.10